Time;durP1;ratioP1;P1;durP2;ratioP2;P2;SDS_P1;SDS_P2;PMS_P1;PMS_P2;Temp;Humidity;BMP_temperature;BMP_pressure;BME280_temperature;BME280_humidity;BME280_pressure;Samples;Min_cycle;Max_cycle;Signal;HPM_P1;HPM_P2
2021/12/15 00:00:44;;;;;;;41.33;20.87;;;10.30;99.90;;;;;;6246967;23;20179;-80
2021/12/15 00:03:10;;;;;;;40.30;19.57;;;10.50;99.90;;;;;;6247061;23;20238;-79
2021/12/15 00:05:36;;;;;;;41.53;20.70;;;10.50;99.90;;;;;;6246677;23;20152;-80
2021/12/15 00:08:07;;;;;;;41.60;21.17;;;10.50;99.90;;;;;;6246641;23;20153;-79
2021/12/15 00:10:33;;;;;;;40.73;21.50;;;10.40;99.90;;;;;;6246802;23;20204;-80
2021/12/15 00:12:59;;;;;;;42.23;19.73;;;10.40;99.90;;;;;;6246767;23;20233;-79
2021/12/15 00:15:28;;;;;;;41.60;20.40;;;10.50;99.90;;;;;;6246617;23;20171;-79
2021/12/15 00:17:55;;;;;;;43.43;20.50;;;10.40;99.90;;;;;;6246833;23;20146;-80
2021/12/15 00:20:21;;;;;;;45.03;21.87;;;10.40;99.90;;;;;;6246262;23;20193;-80
2021/12/15 00:22:52;;;;;;;43.00;20.23;;;10.50;99.90;;;;;;6246734;23;20177;-80
2021/12/15 00:25:23;;;;;;;47.00;21.53;;;10.50;99.90;;;;;;6246889;23;20147;-80
2021/12/15 00:27:49;;;;;;;45.13;23.13;;;10.50;99.90;;;;;;6246707;23;20217;-80
2021/12/15 00:30:15;;;;;;;50.60;22.27;;;10.50;99.90;;;;;;6246776;23;20535;-80
2021/12/15 00:32:41;;;;;;;45.83;22.37;;;10.40;99.90;;;;;;6246552;23;20219;-81
2021/12/15 00:35:08;;;;;;;47.17;21.80;;;10.40;99.90;;;;;;6246245;23;20488;-79
2021/12/15 00:37:35;;;;;;;48.63;22.40;;;10.30;99.90;;;;;;6246258;23;20153;-79
2021/12/15 00:40:01;;;;;;;51.30;22.90;;;10.20;99.90;;;;;;6246814;23;20284;-78
2021/12/15 00:42:27;;;;;;;51.93;22.70;;;10.20;99.90;;;;;;6246504;23;20146;-78
2021/12/15 00:44:53;;;;;;;51.73;22.83;;;10.10;99.90;;;;;;6246231;22;20156;-77
2021/12/15 00:47:18;;;;;;;44.77;22.37;;;10.20;99.90;;;;;;6245909;23;20150;-78
2021/12/15 00:49:45;;;;;;;48.13;21.50;;;10.20;99.90;;;;;;6246343;23;20154;-79
2021/12/15 00:52:10;;;;;;;49.87;22.23;;;10.30;99.90;;;;;;6246438;23;20154;-78
2021/12/15 00:54:37;;;;;;;42.83;20.63;;;10.30;99.90;;;;;;6246240;23;20225;-77
2021/12/15 00:57:03;;;;;;;52.50;23.70;;;10.40;99.90;;;;;;6246545;23;20164;-76
2021/12/15 00:59:30;;;;;;;54.00;23.93;;;10.50;99.90;;;;;;6246108;23;20175;-79
2021/12/15 01:01:56;;;;;;;50.57;23.03;;;10.50;99.90;;;;;;6244460;23;20155;-77
2021/12/15 01:04:24;;;;;;;50.33;23.70;;;10.30;99.90;;;;;;6245987;23;20147;-78
2021/12/15 01:06:54;;;;;;;50.83;23.87;;;10.30;99.90;;;;;;6246319;23;20156;-78
2021/12/15 01:09:25;;;;;;;50.60;23.13;;;10.40;99.90;;;;;;6245794;23;20646;-79
2021/12/15 01:19:47;;;;;;;54.23;22.10;;;10.40;99.90;;;;;;6246270;23;20151;-78
2021/12/15 01:20:14;;;;;;;45.50;21.40;;;10.40;99.90;;;;;;6245922;23;20242;-78
2021/12/15 01:22:48;;;;;;;53.73;22.33;;;10.40;99.90;;;;;;6246273;23;20140;-77
2021/12/15 01:25:21;;;;;;;54.20;23.53;;;10.40;99.90;;;;;;6245839;23;20218;-78
2021/12/15 01:27:47;;;;;;;51.10;22.03;;;10.50;99.90;;;;;;6246216;23;20189;-77
2021/12/15 01:30:15;;;;;;;53.77;23.40;;;10.50;99.90;;;;;;6245477;23;20266;-77
2021/12/15 01:32:42;;;;;;;51.37;21.77;;;10.50;99.90;;;;;;6245745;23;20168;-78
2021/12/15 01:35:09;;;;;;;52.00;23.50;;;10.50;99.90;;;;;;6245651;23;20143;-77
2021/12/15 01:37:35;;;;;;;54.33;24.00;;;10.70;99.90;;;;;;6245838;23;20168;-77
2021/12/15 01:40:01;;;;;;;52.93;24.20;;;10.60;99.90;;;;;;6243754;23;20611;-76
2021/12/15 01:42:31;;;;;;;59.60;24.67;;;10.50;99.90;;;;;;6245770;23;20590;-79
2021/12/15 01:47:41;;;;;;;56.13;25.07;;;10.50;99.90;;;;;;6245795;23;20162;-78
2021/12/15 01:50:09;;;;;;;52.43;23.50;;;10.40;99.90;;;;;;6245449;23;20147;-78
2021/12/15 01:52:37;;;;;;;50.77;22.27;;;10.40;99.90;;;;;;6245785;23;20146;-77
2021/12/15 01:55:17;;;;;;;48.23;22.30;;;10.30;99.90;;;;;;6245240;23;20175;-77
2021/12/15 01:57:43;;;;;;;54.03;23.30;;;10.40;99.90;;;;;;6245316;23;20495;-79
2021/12/15 02:00:19;;;;;;;53.13;23.13;;;10.40;99.90;;;;;;6243286;23;20187;-79
2021/12/15 02:02:45;;;;;;;55.13;23.43;;;10.40;99.90;;;;;;6245602;23;20132;-78
2021/12/15 02:05:12;;;;;;;51.10;22.60;;;10.40;99.90;;;;;;6245956;23;20132;-80
2021/12/15 02:07:39;;;;;;;56.37;24.50;;;10.40;99.90;;;;;;6245809;23;20168;-78
2021/12/15 02:10:06;;;;;;;51.73;22.63;;;10.40;99.90;;;;;;6245777;23;20164;-80
2021/12/15 02:12:37;;;;;;;49.63;22.53;;;10.50;99.90;;;;;;6245969;23;20218;-77
2021/12/15 02:15:08;;;;;;;51.23;22.23;;;10.40;99.90;;;;;;6245667;23;20217;-80
2021/12/15 02:17:34;;;;;;;55.20;23.03;;;10.40;99.90;;;;;;6245088;23;20178;-79
2021/12/15 02:20:03;;;;;;;52.07;22.37;;;10.50;99.90;;;;;;6245788;23;20593;-86
2021/12/15 02:22:31;;;;;;;49.57;22.13;;;10.50;99.90;;;;;;6261383;23;20157;-89
2021/12/15 02:25:18;;;;;;;50.73;22.57;;;10.50;99.90;;;;;;6262582;22;20158;-88
2021/12/15 02:28:25;;;;;;;46.83;22.97;;;10.50;99.90;;;;;;6267969;23;20152;-89
2021/12/15 02:34:06;;;;;;;54.40;23.23;;;10.40;99.90;;;;;;6115615;23;20156;-89
2021/12/15 02:39:52;;;;;;;51.53;22.97;;;10.40;99.90;;;;;;6268277;23;20145;-88
2021/12/15 02:42:46;;;;;;;55.57;22.80;;;10.50;99.90;;;;;;6268511;23;20169;-88
2021/12/15 02:45:27;;;;;;;47.33;21.27;;;10.50;99.90;;;;;;6267917;23;20196;-89
2021/12/15 02:47:58;;;;;;;47.30;20.07;;;10.50;99.90;;;;;;6241322;23;20148;-88
2021/12/15 02:50:50;;;;;;;47.87;21.63;;;10.50;99.90;;;;;;6267876;23;20170;-88
2021/12/15 02:53:21;;;;;;;48.03;21.77;;;10.50;99.90;;;;;;6268650;23;20132;-89
2021/12/15 02:56:02;;;;;;;45.03;20.87;;;10.50;99.90;;;;;;6265106;23;20591;-89
2021/12/15 02:58:58;;;;;;;47.23;22.10;;;10.60;99.90;;;;;;6269444;23;20151;-89
2021/12/15 03:01:40;;;;;;;39.63;20.10;;;10.50;99.90;;;;;;6243041;23;20241;-88
2021/12/15 03:04:53;;;;;;;43.57;20.03;;;10.50;99.90;;;;;;6268820;23;20155;-88
2021/12/15 03:07:36;;;;;;;50.50;21.63;;;10.50;99.90;;;;;;6267422;23;20153;-89
2021/12/15 03:15:54;;;;;;;43.80;20.73;;;10.40;99.90;;;;;;6269113;23;20145;-88
2021/12/15 03:18:31;;;;;;;52.87;22.80;;;10.30;99.90;;;;;;6268857;23;20185;-89
2021/12/15 03:21:09;;;;;;;48.17;22.17;;;10.30;99.90;;;;;;6243046;23;20204;-88
2021/12/15 03:24:08;;;;;;;43.93;20.70;;;10.40;99.90;;;;;;6269280;23;20135;-88
2021/12/15 03:27:05;;;;;;;47.23;21.27;;;10.30;99.90;;;;;;6242869;23;20168;-89
2021/12/15 03:36:11;;;;;;;44.37;19.77;;;10.40;99.90;;;;;;6266955;23;20172;-89
2021/12/15 03:38:41;;;;;;;40.07;20.00;;;10.40;99.90;;;;;;6266396;23;20145;-88
2021/12/15 03:41:12;;;;;;;41.57;18.90;;;10.40;99.90;;;;;;6242536;23;20190;-89
2021/12/15 03:43:48;;;;;;;35.57;18.07;;;10.40;99.90;;;;;;6268482;23;20135;-89
2021/12/15 03:46:28;;;;;;;41.13;19.30;;;10.30;99.90;;;;;;6242597;23;20141;-88
2021/12/15 03:49:00;;;;;;;40.93;19.50;;;10.30;99.90;;;;;;6270532;23;20142;-89
2021/12/15 03:51:31;;;;;;;37.03;18.53;;;10.30;99.90;;;;;;6238435;23;20162;-89
2021/12/15 03:54:00;;;;;;;40.40;19.83;;;10.50;99.90;;;;;;6268077;23;20164;-89
2021/12/15 03:56:49;;;;;;;38.77;19.20;;;10.60;99.90;;;;;;6244491;23;20177;-89
2021/12/15 03:59:58;;;;;;;44.77;19.97;;;10.60;99.90;;;;;;6269802;23;20124;-89
2021/12/15 04:02:28;;;;;;;43.13;20.17;;;10.60;99.90;;;;;;6268013;23;20152;-88
2021/12/15 04:05:19;;;;;;;46.03;21.50;;;10.60;99.90;;;;;;6243612;23;20151;-88
2021/12/15 04:07:58;;;;;;;43.70;21.20;;;10.60;99.90;;;;;;6244355;23;20158;-89
2021/12/15 04:10:56;;;;;;;46.60;21.17;;;10.60;99.90;;;;;;6269944;23;20163;-89
2021/12/15 04:13:33;;;;;;;42.90;20.90;;;10.50;99.90;;;;;;6269173;23;20157;-89
2021/12/15 04:19:11;;;;;;;47.00;21.03;;;10.50;99.90;;;;;;6270197;23;20603;-89
2021/12/15 04:21:55;;;;;;;42.30;19.90;;;10.70;99.90;;;;;;6245662;23;20167;-89
2021/12/15 04:24:27;;;;;;;48.70;21.47;;;10.70;99.90;;;;;;6244364;23;20215;-88
2021/12/15 04:27:18;;;;;;;50.70;22.53;;;10.70;99.90;;;;;;6251309;23;20159;-89
2021/12/15 04:30:03;;;;;;;46.77;21.10;;;10.70;99.90;;;;;;6235790;23;20157;-89
2021/12/15 04:32:41;;;;;;;47.23;22.70;;;10.70;99.90;;;;;;6244968;23;20155;-89
2021/12/15 04:35:44;;;;;;;47.63;22.57;;;10.60;99.90;;;;;;6272752;23;20134;-89
2021/12/15 04:38:58;;;;;;;52.83;23.30;;;10.60;99.90;;;;;;6272853;23;20291;-89
2021/12/15 04:44:56;;;;;;;52.13;23.50;;;10.60;99.90;;;;;;6392978;22;20209;-89
2021/12/15 04:47:42;;;;;;;50.20;22.70;;;10.60;99.90;;;;;;6370324;22;20160;-89
2021/12/15 04:50:53;;;;;;;48.87;22.40;;;10.60;99.90;;;;;;6396929;22;20144;-89
2021/12/15 04:53:22;;;;;;;52.97;23.77;;;10.50;99.90;;;;;;6368706;22;20159;-89
2021/12/15 04:55:53;;;;;;;53.37;22.80;;;10.50;99.90;;;;;;6363099;22;20180;-89
2021/12/15 04:58:39;;;;;;;52.13;23.57;;;10.50;99.90;;;;;;6335364;22;20208;-88
2021/12/15 05:01:31;;;;;;;49.83;23.50;;;10.50;99.90;;;;;;6337080;22;20272;-88
2021/12/15 05:04:03;;;;;;;51.83;23.73;;;10.50;99.90;;;;;;6362443;22;20579;-88
2021/12/15 05:06:56;;;;;;;52.27;23.60;;;10.50;99.90;;;;;;6335938;22;20147;-89
2021/12/15 05:09:51;;;;;;;50.60;23.07;;;10.50;99.90;;;;;;6336151;22;20190;-88
2021/12/15 05:13:08;;;;;;;52.43;23.87;;;10.50;99.90;;;;;;6345652;22;20161;-88
2021/12/15 05:16:16;;;;;;;50.90;23.53;;;10.50;99.90;;;;;;6364291;22;20138;-89
2021/12/15 05:19:07;;;;;;;50.33;23.60;;;10.60;99.90;;;;;;6364545;22;20151;-88
2021/12/15 05:21:34;;;;;;;56.33;24.43;;;10.50;99.90;;;;;;6364509;22;20166;-89
2021/12/15 05:24:30;;;;;;;51.20;23.77;;;10.60;99.90;;;;;;6364007;22;20153;-89
2021/12/15 05:27:13;;;;;;;51.97;23.70;;;10.60;99.90;;;;;;6363717;22;20151;-89
2021/12/15 05:30:02;;;;;;;43.47;21.67;;;10.70;99.90;;;;;;6337825;22;20160;-89
2021/12/15 05:32:28;;;;;;;46.77;22.47;;;10.60;99.90;;;;;;6338922;22;20151;-89
2021/12/15 05:35:06;;;;;;;45.40;21.53;;;10.60;99.90;;;;;;6338383;22;20141;-89
2021/12/15 05:38:09;;;;;;;42.53;21.23;;;10.50;99.90;;;;;;6352778;22;20168;-89
2021/12/15 05:41:09;;;;;;;39.83;21.37;;;10.50;99.90;;;;;;6334209;22;20186;-89
2021/12/15 05:43:35;;;;;;;47.00;22.30;;;10.50;99.90;;;;;;6333495;22;20187;-88
2021/12/15 05:46:01;;;;;;;46.67;22.23;;;10.50;99.90;;;;;;6307755;22;20142;-89
2021/12/15 05:48:29;;;;;;;45.57;21.87;;;10.50;99.90;;;;;;6335563;22;20146;-89
2021/12/15 05:50:56;;;;;;;52.90;23.80;;;10.40;99.90;;;;;;6332419;22;20141;-89
2021/12/15 05:53:29;;;;;;;42.97;21.97;;;10.50;99.90;;;;;;6332719;22;20154;-88
2021/12/15 05:56:36;;;;;;;47.07;22.60;;;10.40;99.90;;;;;;6359204;22;20195;-89
2021/12/15 05:59:32;;;;;;;47.10;23.07;;;10.40;99.90;;;;;;6334608;22;20163;-89
2021/12/15 06:02:05;;;;;;;45.20;23.17;;;10.50;99.90;;;;;;6336272;22;20143;-89
2021/12/15 06:04:57;;;;;;;47.63;22.50;;;10.50;99.90;;;;;;6335336;22;20158;-88
2021/12/15 06:07:47;;;;;;;46.57;22.77;;;10.50;99.90;;;;;;6359569;22;20169;-89
2021/12/15 06:10:19;;;;;;;43.83;22.27;;;10.50;99.90;;;;;;6337193;22;20153;-88
2021/12/15 06:15:50;;;;;;;44.20;22.10;;;10.60;99.90;;;;;;6366178;22;20194;-88
2021/12/15 06:19:34;;;;;;;43.77;21.77;;;10.60;99.90;;;;;;6367053;22;20153;-89
2021/12/15 06:22:41;;;;;;;42.93;21.93;;;10.60;99.90;;;;;;6339808;22;20171;-87
2021/12/15 06:29:29;;;;;;;47.17;23.30;;;10.70;99.90;;;;;;6363166;22;20175;-88
2021/12/15 06:32:54;;;;;;;49.33;22.33;;;10.70;99.90;;;;;;6367018;22;20151;-88
2021/12/15 06:36:01;;;;;;;46.20;23.50;;;10.70;99.90;;;;;;6340288;22;20159;-88
2021/12/15 06:38:46;;;;;;;47.93;22.73;;;10.80;99.90;;;;;;6368133;22;20151;-94
2021/12/15 06:59:48;;;;;;;44.33;21.90;;;10.70;99.90;;;;;;6333574;22;20306;-89
2021/12/15 07:02:15;;;;;;;43.97;21.60;;;10.70;99.90;;;;;;6311809;22;20155;-89
2021/12/15 07:04:41;;;;;;;40.63;20.60;;;10.70;99.90;;;;;;6311718;22;20149;-89
2021/12/15 07:07:07;;;;;;;43.73;21.37;;;10.90;99.90;;;;;;6339522;22;20137;-89
2021/12/15 07:09:33;;;;;;;42.27;20.83;;;10.80;99.90;;;;;;6311741;22;20153;-89
2021/12/15 07:12:00;;;;;;;46.13;21.10;;;10.70;99.90;;;;;;6339568;22;20143;-87
2021/12/15 07:14:25;;;;;;;48.53;23.50;;;10.60;99.90;;;;;;6311787;22;20148;-88
2021/12/15 07:16:54;;;;;;;43.73;21.00;;;10.70;99.90;;;;;;6312242;22;20632;-87
2021/12/15 07:19:32;;;;;;;45.60;23.13;;;10.70;99.90;;;;;;6311515;22;20156;-86
2021/12/15 07:22:10;;;;;;;48.50;23.50;;;10.70;99.90;;;;;;6313885;22;20208;-87
2021/12/15 07:24:38;;;;;;;46.80;23.00;;;10.60;99.90;;;;;;6340036;22;20573;-88
2021/12/15 07:27:05;;;;;;;49.67;23.27;;;10.60;99.90;;;;;;6311795;22;20588;-87
2021/12/15 07:29:34;;;;;;;47.10;24.03;;;10.60;99.90;;;;;;6311849;22;20195;-89
2021/12/15 07:32:01;;;;;;;56.13;23.53;;;10.70;99.90;;;;;;6311580;22;20226;-87
2021/12/15 17:06:51;;;;;;;38.70;24.23;;;11.50;99.90;;;;;;6302958;22;20211;-88
2021/12/15 17:09:37;;;;;;;35.83;21.80;;;11.50;99.90;;;;;;6312734;22;20167;-88
2021/12/15 17:12:23;;;;;;;36.67;21.80;;;11.60;99.90;;;;;;6313466;22;20588;-90
2021/12/15 17:14:53;;;;;;;35.90;20.77;;;11.60;99.90;;;;;;6313278;22;20589;-87
2021/12/15 17:37:34;;;;;;;39.50;23.10;;;11.50;99.90;;;;;;6324667;22;20679;-86
2021/12/15 17:40:00;;;;;;;38.10;23.27;;;11.50;99.90;;;;;;6340199;22;20177;-87
2021/12/15 17:42:32;;;;;;;43.03;24.23;;;11.50;99.90;;;;;;6312024;22;20160;-87
2021/12/15 17:45:00;;;;;;;40.50;23.07;;;11.50;99.90;;;;;;6339408;22;20146;-86
2021/12/15 17:47:31;;;;;;;243.13;128.00;;;11.60;99.90;;;;;;6311720;22;20148;-87
2021/12/15 17:50:00;;;;;;;149.57;85.87;;;11.50;99.90;;;;;;6339472;22;20145;-86
2021/12/15 17:52:28;;;;;;;43.47;24.40;;;11.50;99.90;;;;;;6339599;22;20141;-86
2021/12/15 17:55:16;;;;;;;101.37;65.63;;;11.50;99.90;;;;;;6312015;22;20172;-86
2021/12/15 17:57:51;;;;;;;48.60;28.23;;;11.50;99.90;;;;;;6311713;22;20153;-86
2021/12/15 18:00:30;;;;;;;40.20;23.27;;;11.40;99.90;;;;;;6311505;22;20180;-87
2021/12/15 18:02:56;;;;;;;40.60;23.13;;;11.40;99.90;;;;;;6339288;22;20145;-86
2021/12/15 18:15:43;;;;;;;43.93;25.20;;;11.50;99.90;;;;;;6325831;22;20209;-85
2021/12/15 18:18:12;;;;;;;45.83;27.53;;;11.50;99.90;;;;;;6311817;22;20222;-88
2021/12/15 18:20:40;;;;;;;41.97;25.20;;;11.50;99.90;;;;;;6338854;22;20177;-80
2021/12/15 18:23:06;;;;;;;50.77;31.77;;;11.50;99.90;;;;;;6311355;22;20214;-87
2021/12/15 18:25:32;;;;;;;47.27;30.40;;;11.40;99.90;;;;;;6310175;22;20722;-90
2021/12/15 18:28:00;;;;;;;43.80;24.40;;;11.50;99.90;;;;;;6311312;22;20228;-88
2021/12/15 18:30:34;;;;;;;39.47;23.17;;;11.50;99.90;;;;;;6311927;22;20566;-87
2021/12/15 18:33:03;;;;;;;43.63;23.83;;;11.40;99.90;;;;;;6310412;22;20206;-87
2021/12/15 18:35:29;;;;;;;37.33;21.57;;;11.40;99.90;;;;;;6312586;22;20202;-87
2021/12/15 18:37:55;;;;;;;42.07;26.30;;;11.30;99.90;;;;;;6312920;22;20212;-89
2021/12/15 18:40:21;;;;;;;46.63;25.97;;;11.40;99.90;;;;;;6339946;22;20173;-83
2021/12/15 18:42:47;;;;;;;39.97;22.63;;;11.40;99.90;;;;;;6312332;22;20157;-88
2021/12/15 18:45:14;;;;;;;39.97;22.00;;;11.30;99.90;;;;;;6313083;22;20160;-87
2021/12/15 18:47:41;;;;;;;43.70;25.20;;;11.40;99.90;;;;;;6339513;22;20142;-85
2021/12/15 18:50:14;;;;;;;39.47;22.10;;;11.30;99.90;;;;;;6312772;22;20145;-86
2021/12/15 18:52:43;;;;;;;38.67;22.63;;;11.40;99.90;;;;;;6312614;22;20156;-86
2021/12/15 18:55:11;;;;;;;43.33;25.40;;;11.40;99.90;;;;;;6339743;22;20693;-87
2021/12/15 18:57:37;;;;;;;36.97;22.50;;;11.40;99.90;;;;;;6311852;22;20142;-87
2021/12/15 19:00:15;;;;;;;41.63;23.00;;;11.40;99.90;;;;;;6313010;22;20623;-88
2021/12/15 19:02:41;;;;;;;42.43;24.07;;;11.40;99.90;;;;;;6312255;22;20145;-87
2021/12/15 19:05:08;;;;;;;39.53;23.07;;;11.40;99.90;;;;;;6312908;22;20149;-87
2021/12/15 19:07:35;;;;;;;38.83;22.50;;;11.50;99.90;;;;;;6343006;22;20145;-89
2021/12/15 19:10:01;;;;;;;45.13;22.20;;;11.60;99.90;;;;;;6312162;22;20674;-86
2021/12/15 19:12:27;;;;;;;36.50;21.73;;;11.60;99.90;;;;;;6339884;22;20145;-86
2021/12/15 19:14:54;;;;;;;38.37;22.13;;;11.60;99.90;;;;;;6312040;22;20796;-86
2021/12/15 19:17:22;;;;;;;45.27;26.60;;;11.50;99.90;;;;;;6339306;22;20577;-86
2021/12/15 19:19:53;;;;;;;34.63;21.60;;;11.50;99.90;;;;;;6337999;22;20164;-87
2021/12/15 19:22:21;;;;;;;34.63;20.13;;;11.60;99.90;;;;;;6336784;22;20153;-87
2021/12/15 19:24:48;;;;;;;35.20;21.73;;;11.60;99.90;;;;;;6339230;22;20147;-87
2021/12/15 19:27:15;;;;;;;41.47;21.80;;;11.60;99.90;;;;;;6311982;22;20149;-88
2021/12/15 19:29:44;;;;;;;38.27;21.83;;;11.50;99.90;;;;;;6313303;22;20593;-88
2021/12/15 19:32:10;;;;;;;38.70;21.50;;;11.60;99.90;;;;;;6310830;22;20203;-87
2021/12/15 19:34:36;;;;;;;34.33;19.63;;;11.50;99.90;;;;;;6311964;22;20157;-87
2021/12/15 19:37:02;;;;;;;38.40;19.87;;;11.50;99.90;;;;;;6312092;22;20160;-87
2021/12/15 19:39:28;;;;;;;40.33;21.03;;;11.50;99.90;;;;;;6337090;22;20144;-87
2021/12/15 19:41:54;;;;;;;39.67;21.63;;;11.50;99.90;;;;;;6308753;22;20181;-87
2021/12/15 19:44:21;;;;;;;37.10;20.20;;;11.50;99.90;;;;;;6309630;22;20157;-87
2021/12/15 19:46:51;;;;;;;37.60;20.80;;;11.60;99.90;;;;;;6309550;22;20185;-87
2021/12/15 19:49:17;;;;;;;40.57;23.30;;;11.60;99.90;;;;;;6309594;22;20597;-86
2021/12/15 19:51:43;;;;;;;36.80;21.27;;;11.50;99.90;;;;;;6309852;22;20145;-85
2021/12/15 19:54:09;;;;;;;39.03;21.13;;;11.60;99.90;;;;;;6313470;22;20149;-87
2021/12/15 19:56:37;;;;;;;100.03;62.67;;;11.50;99.90;;;;;;6341376;22;20168;-87
2021/12/15 19:59:04;;;;;;;34.20;21.03;;;11.60;99.90;;;;;;6314924;22;20164;-88
2021/12/15 20:01:33;;;;;;;41.77;22.83;;;11.50;99.90;;;;;;6313083;22;20217;-88
2021/12/15 20:04:00;;;;;;;42.07;22.37;;;11.50;99.90;;;;;;6338849;22;20153;-90
2021/12/15 20:06:29;;;;;;;39.80;23.70;;;11.40;99.90;;;;;;6340820;22;20150;-87
2021/12/15 20:08:56;;;;;;;38.23;21.90;;;11.30;99.90;;;;;;6313006;22;20149;-87
2021/12/15 20:11:24;;;;;;;37.37;21.60;;;11.40;99.90;;;;;;6313205;22;20457;-88
2021/12/15 20:13:53;;;;;;;38.53;21.23;;;11.50;99.90;;;;;;6313495;22;20165;-88
2021/12/15 20:16:29;;;;;;;31.53;19.20;;;11.40;99.90;;;;;;6287325;22;20180;-87
2021/12/15 20:18:56;;;;;;;38.83;20.63;;;11.50;99.90;;;;;;6312920;22;20153;-88
2021/12/15 20:21:24;;;;;;;38.57;21.03;;;11.40;99.90;;;;;;6340216;22;20208;-88
2021/12/15 20:23:51;;;;;;;40.60;21.20;;;11.50;99.90;;;;;;6312460;22;20150;-87
2021/12/15 20:26:17;;;;;;;36.07;19.87;;;11.40;99.90;;;;;;6338166;22;20240;-88
2021/12/15 20:28:43;;;;;;;38.07;21.97;;;11.40;99.90;;;;;;6312061;22;20565;-85
2021/12/15 20:31:13;;;;;;;37.83;21.13;;;11.40;99.90;;;;;;6311939;22;20582;-87
2021/12/15 20:33:41;;;;;;;37.13;19.47;;;11.30;99.90;;;;;;6311720;22;20592;-83
2021/12/15 20:36:08;;;;;;;36.63;20.37;;;11.40;99.90;;;;;;6339809;22;20220;-86
2021/12/15 20:38:34;;;;;;;42.50;20.40;;;11.50;99.90;;;;;;6337508;22;20149;-84
2021/12/15 20:41:04;;;;;;;36.50;20.17;;;11.50;99.90;;;;;;6339811;22;20634;-87
2021/12/15 20:43:31;;;;;;;36.03;19.47;;;11.50;99.90;;;;;;6312332;22;20152;-86
2021/12/15 20:45:57;;;;;;;36.27;21.00;;;11.40;99.90;;;;;;6311881;22;20153;-87
2021/12/15 20:48:23;;;;;;;38.17;20.93;;;11.40;99.90;;;;;;6312505;22;20172;-87
2021/12/15 20:50:50;;;;;;;36.87;19.27;;;11.50;99.90;;;;;;6312273;22;20153;-87
2021/12/15 20:53:20;;;;;;;37.43;20.77;;;11.50;99.90;;;;;;6312499;22;20149;-86
2021/12/15 20:55:46;;;;;;;37.93;20.40;;;11.60;99.90;;;;;;6311897;22;20175;-87
2021/12/15 20:58:13;;;;;;;38.77;20.87;;;11.50;99.90;;;;;;6339690;22;20593;-86
2021/12/15 21:00:41;;;;;;;38.53;22.17;;;11.50;99.90;;;;;;6339476;22;20177;-87
2021/12/15 21:03:07;;;;;;;39.97;21.73;;;11.50;99.90;;;;;;6339327;22;20190;-87
2021/12/15 21:05:43;;;;;;;42.20;25.87;;;11.50;99.90;;;;;;6311717;22;20711;-86
2021/12/15 21:08:10;;;;;;;38.37;21.43;;;11.50;99.90;;;;;;6339476;22;20168;-87
2021/12/15 21:10:42;;;;;;;35.27;20.63;;;11.60;99.90;;;;;;6339235;22;20625;-87
2021/12/15 21:13:08;;;;;;;35.77;20.47;;;11.70;99.90;;;;;;6312912;22;20154;-87
2021/12/15 21:15:34;;;;;;;43.63;24.67;;;11.70;99.90;;;;;;6312293;22;20169;-86
2021/12/15 21:18:01;;;;;;;33.57;19.73;;;11.60;99.90;;;;;;6312418;22;20146;-87
2021/12/15 21:20:28;;;;;;;36.40;21.23;;;11.60;99.90;;;;;;6311601;22;20318;-87
2021/12/15 21:22:55;;;;;;;41.10;21.20;;;11.60;99.90;;;;;;6312109;22;20145;-87
2021/12/15 21:25:22;;;;;;;38.53;20.57;;;11.60;99.90;;;;;;6339173;22;20145;-87
2021/12/15 21:27:51;;;;;;;57.03;34.80;;;11.60;99.90;;;;;;6311890;22;20146;-88
2021/12/15 21:30:20;;;;;;;44.80;26.53;;;11.60;99.90;;;;;;6338257;22;20145;-87
2021/12/15 21:32:48;;;;;;;36.10;21.83;;;11.60;99.90;;;;;;6310808;22;20152;-87
2021/12/15 21:35:16;;;;;;;34.60;21.70;;;11.60;99.90;;;;;;6310517;22;20155;-87
2021/12/15 21:37:44;;;;;;;38.83;21.30;;;11.60;99.90;;;;;;6311004;22;20180;-80
2021/12/15 21:40:12;;;;;;;37.73;21.03;;;11.50;99.90;;;;;;6311497;22;20173;-81
2021/12/15 21:42:38;;;;;;;37.00;21.80;;;11.50;99.90;;;;;;6311317;22;20157;-87
2021/12/15 21:45:08;;;;;;;35.33;22.10;;;11.60;99.90;;;;;;6312105;22;20236;-87
2021/12/15 21:47:33;;;;;;;36.80;20.70;;;11.80;99.90;;;;;;6311853;22;20153;-88
2021/12/15 21:49:59;;;;;;;40.97;24.07;;;11.70;99.90;;;;;;6338563;22;20172;-88
2021/12/15 21:52:25;;;;;;;40.80;21.20;;;11.70;99.90;;;;;;6312197;22;20149;-88
2021/12/15 21:54:50;;;;;;;43.77;25.80;;;11.70;99.90;;;;;;6338882;22;20168;-87
2021/12/15 21:57:16;;;;;;;38.00;19.43;;;11.70;99.90;;;;;;6311980;22;20157;-85
2021/12/15 21:59:42;;;;;;;36.20;20.67;;;11.80;99.90;;;;;;6311442;22;20149;-86
2021/12/15 22:02:10;;;;;;;38.50;22.53;;;11.70;99.90;;;;;;6337549;22;20593;-88
2021/12/15 22:04:36;;;;;;;34.30;20.43;;;11.80;99.90;;;;;;6339016;22;20199;-87
2021/12/15 22:07:02;;;;;;;34.90;19.37;;;11.80;99.90;;;;;;6311306;22;20164;-88
2021/12/15 22:09:27;;;;;;;37.57;20.87;;;11.90;99.90;;;;;;6311797;22;20490;-88
2021/12/15 22:11:56;;;;;;;36.70;20.93;;;11.80;99.90;;;;;;6338469;22;20152;-86
2021/12/15 22:14:22;;;;;;;31.03;19.57;;;11.70;99.90;;;;;;6339217;22;20184;-88
2021/12/15 22:16:49;;;;;;;36.23;21.13;;;11.80;99.90;;;;;;6311532;22;20160;-88
2021/12/15 22:19:15;;;;;;;68.57;39.23;;;11.80;99.90;;;;;;6311149;22;20145;-88
2021/12/15 22:21:44;;;;;;;64.97;31.97;;;11.80;99.90;;;;;;6311168;22;20199;-88
2021/12/15 22:24:14;;;;;;;64.77;34.40;;;11.70;99.90;;;;;;6311606;22;20145;-87
2021/12/15 22:26:43;;;;;;;36.07;20.57;;;11.80;99.90;;;;;;6311166;22;20153;-88
2021/12/15 22:29:11;;;;;;;34.17;20.13;;;11.80;99.90;;;;;;6338965;22;20137;-87
2021/12/15 22:31:41;;;;;;;41.93;23.57;;;11.70;99.90;;;;;;6338726;22;20148;-86
2021/12/15 22:34:08;;;;;;;36.47;19.97;;;11.60;99.90;;;;;;6310974;22;20574;-87
2021/12/15 22:36:33;;;;;;;42.13;22.30;;;11.50;99.90;;;;;;6310995;22;20152;-88
2021/12/15 22:39:00;;;;;;;36.37;20.67;;;11.50;99.90;;;;;;6311466;22;20161;-88
2021/12/15 22:41:26;;;;;;;32.90;18.93;;;11.50;99.90;;;;;;6310881;22;20193;-88
2021/12/15 22:43:52;;;;;;;33.70;19.67;;;11.50;99.90;;;;;;6339067;22;20149;-90
2021/12/15 22:46:19;;;;;;;34.60;19.00;;;11.60;99.90;;;;;;6338317;22;20141;-87
2021/12/15 22:48:45;;;;;;;32.90;19.77;;;11.60;99.90;;;;;;6338884;22;20145;-89
2021/12/15 22:51:12;;;;;;;36.20;19.97;;;11.50;99.90;;;;;;6310950;22;20206;-90
2021/12/15 22:53:38;;;;;;;37.67;20.07;;;11.70;99.90;;;;;;6311559;22;20133;-89
2021/12/15 22:56:04;;;;;;;35.83;20.43;;;11.80;99.90;;;;;;6311383;22;20176;-90
2021/12/15 22:58:30;;;;;;;34.30;20.17;;;11.80;99.90;;;;;;6311433;22;20138;-90
2021/12/15 23:01:18;;;;;;;39.63;21.33;;;11.70;99.90;;;;;;6312015;22;20173;-90
2021/12/15 23:03:46;;;;;;;36.27;19.90;;;11.60;99.90;;;;;;6311141;22;20167;-89
2021/12/15 23:06:12;;;;;;;35.73;20.90;;;11.70;99.90;;;;;;6310982;22;20452;-92
2021/12/15 23:08:38;;;;;;;33.30;19.80;;;11.70;99.90;;;;;;6312046;22;20167;-90
2021/12/15 23:11:07;;;;;;;37.83;21.63;;;11.60;99.90;;;;;;6312001;22;20151;-90
2021/12/15 23:13:38;;;;;;;33.53;19.23;;;11.50;99.90;;;;;;6311735;22;20145;-90
2021/12/15 23:16:06;;;;;;;37.07;20.53;;;11.60;99.90;;;;;;6311704;22;20293;-89
2021/12/15 23:18:32;;;;;;;45.13;23.73;;;11.60;99.90;;;;;;6311573;22;20228;-90
2021/12/15 23:20:58;;;;;;;39.67;19.70;;;11.60;99.90;;;;;;6311853;22;20204;-90
2021/12/15 23:23:29;;;;;;;34.80;20.20;;;11.70;99.90;;;;;;6311827;22;20143;-90
2021/12/15 23:25:55;;;;;;;37.40;21.87;;;11.60;99.90;;;;;;6311853;22;20149;-90
2021/12/15 23:28:28;;;;;;;33.50;20.37;;;11.60;99.90;;;;;;6311876;22;20142;-90
2021/12/15 23:30:57;;;;;;;32.80;20.03;;;11.60;99.90;;;;;;6311468;22;20540;-90
2021/12/15 23:33:23;;;;;;;36.23;21.50;;;11.50;99.90;;;;;;6311434;22;20141;-90
2021/12/15 23:35:54;;;;;;;36.37;21.23;;;11.60;99.90;;;;;;6311766;22;20146;-90
2021/12/15 23:38:34;;;;;;;41.97;23.73;;;11.60;99.90;;;;;;6311492;22;20152;-90
2021/12/15 23:41:33;;;;;;;39.13;21.00;;;11.60;99.90;;;;;;6312265;22;20185;-89
